Airfield :
LOGIN :

Register | Disclaimer

   EN    FR    IT 

 










Legend :    VFR   Marginal VFR   IFR   Intensive IFR   Very Intensive IFR
Visi :
Ceiling :
>= 8 km
>= 3000ft
5 to 8 km
1000 to 3000 ft
1500m to 5 km
500 to 1000 ft
800 to 1500m
200 to 500 ft
< 800m
< 200 ft
Symbols :   Thunderstorms  Fog  Heavy snow  Heavy precipitations  Wind > 20 kt
SIGMETs :     Misc.  Thunderstorms  Icing  Turbulence  Mountain Waves  Volcanic Ashes






- Airport Elevation : 963 ft
- IATA code : TGM


LRTM - Transilvania Târgu Mureş Int.

CURRENT METAR :
  • 131530Z VRB02KT //// FEW046CB 37/19 Q1012

EXPIRED METARs :
  • 131500Z 30004KT 260V350 //// FEW040 FEW044CB 36/18 Q1012
  • 131430Z 27004KT 220V350 //// FEW039 FEW042CB 36/18 Q1012
  • 131400Z 29005KT 230V320 //// FEW039 36/18 Q1012
  • 131330Z 24005KT 180V300 //// FEW039 37/18 Q1012
  • 131300Z VRB04KT //// FEW038 FEW040CB 36/18 Q1012
  • 131230Z VRB04KT //// FEW038 FEW040CB 36/18 Q1012
  • 131200Z 15005KT 100V190 //// FEW038 FEW040TCU 36/19 Q1013
  • 131130Z VRB05KT //// FEW037 FEW039TCU 36/19 Q1013
  • 131100Z 13004KT 050V180 //// FEW037 36/20 Q1013

TAF TAF LRTM
Valid from the 13 at 15:00 until the 14 at 00:00 UTC


131400Z 1315/1400 VRB04KT CAVOK



MET'MAP, your aeronautical weather chart ! - Copyright ORBIFLY December 2007 - Disclaimer

ORBIFLY MET'MAP TEAM :

Programming & Development : Alexandra Zaïnal
Original concept : Baudouin d'Aumeries
Technical & hardware support : Manuel Goepfert
Assistance : Marc-Olivier Méhu




SOURCES & CREDITS :

   NOAA